createdAt,value
2022-08-26T06:41:18.131Z,34.90
2022-08-26T06:43:46.291Z,34.40
2022-08-26T06:46:17.296Z,34.20
2022-08-26T06:48:46.597Z,34.60
2022-08-26T06:51:17.249Z,35.10
2022-08-26T06:53:47.123Z,35.30
2022-08-26T06:56:21.021Z,34.80
2022-08-26T06:58:50.164Z,35.00
2022-08-26T07:01:20.402Z,35.00
2022-08-26T07:03:50.724Z,35.20
2022-08-26T07:06:20.289Z,35.30
2022-08-26T07:08:49.103Z,35.40
2022-08-26T07:11:19.521Z,35.80
2022-08-26T07:13:48.939Z,36.70
2022-08-26T07:16:19.072Z,36.80
2022-08-26T07:18:48.600Z,37.30
2022-08-26T07:21:18.366Z,37.50
2022-08-26T07:23:47.021Z,37.80
2022-08-26T07:26:17.287Z,37.80
2022-08-26T07:28:49.036Z,37.20
2022-08-26T07:31:18.687Z,36.40
2022-08-26T07:33:46.983Z,35.90
2022-08-26T07:36:17.725Z,35.20
2022-08-26T07:38:50.527Z,34.60
2022-08-26T07:41:22.844Z,34.30
2022-08-26T07:43:53.933Z,33.70
2022-08-26T07:46:27.451Z,32.90
2022-08-26T07:48:59.707Z,32.10
2022-08-26T07:51:28.763Z,30.90
2022-08-26T07:53:57.632Z,30.10
2022-08-26T07:56:26.313Z,29.90
2022-08-26T07:58:57.147Z,30.40
2022-08-26T08:01:29.105Z,31.30
2022-08-26T08:04:00.543Z,32.10
2022-08-26T08:06:30.916Z,33.20
2022-08-26T08:09:00.988Z,34.30
2022-08-26T08:11:31.241Z,34.90
2022-08-26T08:14:01.871Z,35.90
2022-08-26T08:16:38.161Z,36.70
2022-08-26T08:19:12.935Z,37.00
2022-08-26T08:21:41.784Z,38.70
2022-08-26T08:24:10.253Z,38.80
2022-08-26T08:26:39.006Z,39.80
2022-08-26T08:29:09.692Z,39.70
2022-08-26T08:31:56.203Z,39.70
2022-08-26T08:34:26.084Z,39.40
2022-08-26T08:36:54.455Z,39.60
2022-08-26T08:39:22.730Z,38.10
2022-08-26T08:42:08.538Z,38.70
2022-08-26T08:44:43.037Z,39.20
2022-08-26T08:47:16.340Z,39.70
2022-08-26T08:49:45.550Z,39.00
2022-08-26T08:52:28.557Z,38.60
2022-08-26T08:54:57.648Z,39.00
2022-08-26T08:57:33.296Z,39.40
2022-08-26T09:00:12.020Z,38.60
2022-08-26T09:02:50.553Z,37.60
2022-08-26T09:05:23.654Z,37.80
2022-08-26T09:07:58.589Z,37.70
2022-08-26T09:10:33.769Z,37.70
2022-08-26T09:13:08.601Z,37.00
2022-08-26T09:15:51.160Z,37.90
2022-08-26T09:18:40.804Z,38.10
2022-08-26T09:21:12.229Z,38.70
2022-08-26T09:23:43.032Z,39.00
2022-08-26T09:26:18.129Z,37.00
2022-08-26T09:28:51.046Z,36.20
2022-08-26T09:31:25.498Z,34.90
2022-08-26T09:34:08.084Z,35.50
2022-08-26T09:36:41.151Z,36.30
2022-08-26T09:39:31.352Z,36.30
2022-08-26T09:42:10.423Z,36.70
2022-08-26T09:44:54.924Z,37.60
2022-08-26T09:47:31.635Z,38.20
2022-08-26T09:50:04.734Z,38.40
2022-08-26T09:52:40.392Z,38.60
2022-08-26T09:55:14.914Z,37.80
2022-08-26T09:57:51.163Z,36.30
2022-08-26T10:00:30.752Z,35.20
2022-08-26T10:03:02.944Z,33.90
2022-08-26T10:05:36.655Z,33.20
2022-08-26T10:08:21.245Z,32.20
2022-08-26T10:10:53.272Z,31.20
2022-08-26T10:13:44.519Z,30.70
2022-08-26T10:16:18.732Z,29.90
2022-08-26T10:18:56.845Z,29.40
2022-08-26T10:21:32.258Z,28.60
2022-08-26T10:24:03.653Z,28.10
2022-08-26T10:26:41.331Z,27.80
2022-08-26T10:29:14.463Z,27.70
2022-08-26T10:31:51.427Z,27.50
2022-08-26T10:34:21.690Z,27.60
2022-08-26T10:37:14.383Z,27.50
2022-08-26T10:39:55.236Z,27.70
2022-08-26T10:42:33.436Z,27.90
2022-08-26T10:45:07.614Z,28.70
2022-08-26T10:47:48.960Z,29.10
2022-08-26T10:50:25.698Z,29.90
2022-08-26T10:53:00.850Z,30.20
2022-08-26T10:55:38.422Z,30.90
2022-08-26T10:58:33.334Z,30.90
2022-08-26T11:01:27.031Z,30.60
2022-08-26T11:04:01.314Z,30.40
2022-08-26T11:06:32.876Z,30.10
2022-08-26T11:09:03.459Z,29.80
2022-08-26T11:11:53.650Z,29.50
2022-08-26T11:14:46.092Z,29.20
2022-08-26T11:17:58.198Z,29.50
2022-08-26T11:20:39.659Z,29.10
2022-08-26T11:23:50.436Z,28.80
2022-08-26T11:26:43.147Z,27.30
2022-08-26T11:29:13.546Z,26.30
2022-08-26T11:31:57.165Z,25.10
2022-08-26T11:34:56.738Z,24.20
2022-08-26T11:37:33.412Z,23.90
2022-08-26T11:40:05.553Z,23.40
2022-08-26T11:42:41.679Z,23.10
2022-08-26T11:45:20.425Z,22.40
2022-08-26T11:47:51.124Z,22.10
2022-08-26T11:50:23.541Z,21.90
2022-08-26T11:52:53.765Z,21.70
2022-08-26T11:55:24.281Z,21.40
2022-08-26T11:57:55.806Z,21.10
2022-08-26T12:00:28.319Z,20.70
2022-08-26T12:03:06.916Z,20.50
2022-08-26T12:05:39.596Z,20.30
2022-08-26T12:08:11.299Z,20.20
2022-08-26T12:10:43.301Z,20.20
2022-08-26T12:13:22.732Z,20.20
2022-08-26T12:15:56.657Z,20.30
2022-08-26T12:18:31.713Z,20.30
2022-08-26T12:21:02.513Z,20.30
2022-08-26T12:23:50.867Z,20.10
2022-08-26T12:26:28.493Z,20.00
2022-08-26T12:29:01.917Z,20.00
2022-08-26T12:31:45.760Z,19.90
2022-08-26T12:34:19.186Z,19.80
2022-08-26T12:36:51.664Z,19.60
2022-08-26T12:39:28.392Z,19.60
2022-08-26T12:42:00.283Z,19.60
2022-08-26T12:44:54.223Z,19.60
2022-08-26T12:47:42.405Z,19.80
2022-08-26T12:50:20.529Z,19.80
2022-08-26T12:53:10.697Z,20.00
2022-08-26T12:55:43.892Z,20.00
2022-08-26T12:58:32.253Z,20.20
2022-08-26T13:01:23.261Z,20.30
2022-08-26T13:03:54.664Z,20.60
2022-08-26T13:06:29.967Z,20.70
2022-08-26T13:09:00.766Z,20.80
2022-08-26T13:11:35.301Z,20.90
2022-08-26T13:14:08.786Z,20.90
2022-08-26T13:16:38.736Z,20.90
2022-08-26T13:19:10.705Z,21.00
2022-08-26T13:21:44.895Z,20.90
2022-08-26T13:24:15.705Z,21.00
2022-08-26T13:26:46.984Z,21.10
2022-08-26T13:29:20.551Z,21.20
2022-08-26T13:31:49.605Z,21.30
2022-08-26T13:34:21.284Z,21.40
2022-08-26T13:36:50.936Z,21.40
2022-08-26T13:39:20.026Z,21.50
2022-08-26T13:41:48.364Z,21.50
2022-08-26T13:44:18.195Z,21.60
2022-08-26T13:46:46.971Z,21.60
2022-08-26T13:49:15.590Z,21.50
2022-08-26T13:51:43.855Z,21.50
2022-08-26T13:54:12.034Z,21.50
2022-08-26T13:56:40.401Z,21.50
2022-08-26T13:59:08.616Z,21.50
2022-08-26T14:01:38.238Z,21.50
2022-08-26T14:04:06.473Z,21.40
2022-08-26T14:06:34.725Z,21.30
2022-08-26T14:09:03.225Z,21.30
2022-08-26T14:11:41.184Z,21.20
2022-08-26T14:14:19.506Z,21.20
2022-08-26T14:16:58.938Z,21.20
2022-08-26T14:19:28.583Z,21.10
2022-08-26T14:21:57.130Z,21.10
2022-08-26T14:24:25.466Z,21.00
2022-08-26T14:26:53.679Z,21.10
2022-08-26T14:29:22.073Z,21.10
2022-08-26T14:31:52.618Z,21.10
2022-08-26T14:34:21.316Z,21.10
2022-08-26T14:36:49.546Z,21.10
2022-08-26T14:39:17.791Z,21.10
2022-08-26T14:41:53.887Z,21.00
2022-08-26T14:44:25.269Z,21.00
2022-08-26T14:46:55.606Z,21.00
2022-08-26T14:49:27.293Z,20.90
2022-08-26T14:51:56.476Z,20.90
2022-08-26T14:54:23.791Z,20.90
2022-08-26T14:56:54.508Z,20.90
2022-08-26T14:59:25.538Z,21.00
2022-08-26T15:01:56.253Z,21.00
2022-08-26T15:04:26.264Z,21.10
2022-08-26T15:06:56.084Z,21.20
2022-08-26T15:09:25.099Z,21.40
2022-08-26T15:11:54.356Z,21.40
2022-08-26T15:14:23.220Z,21.60
2022-08-26T15:16:53.464Z,21.70
2022-08-26T15:19:24.353Z,21.80
2022-08-26T15:21:52.654Z,22.00
2022-08-26T15:24:23.600Z,22.20
2022-08-26T15:26:53.454Z,22.50
2022-08-26T15:29:22.890Z,22.60
2022-08-26T15:31:51.523Z,22.70
2022-08-26T15:34:27.059Z,22.80
2022-08-26T15:36:55.591Z,22.90
2022-08-26T15:39:37.252Z,23.00
2022-08-26T15:42:06.011Z,23.00
2022-08-26T15:44:37.199Z,23.00
2022-08-26T15:47:05.545Z,22.90
2022-08-26T15:49:35.246Z,22.90
2022-08-26T15:52:05.481Z,22.90
2022-08-26T15:54:34.451Z,23.00
2022-08-26T15:57:04.652Z,23.00
2022-08-26T15:59:33.605Z,23.00
2022-08-26T16:02:02.190Z,23.00
2022-08-26T16:04:30.404Z,23.00
2022-08-26T16:06:59.980Z,23.00
2022-08-26T16:09:28.978Z,23.00
2022-08-26T16:11:57.878Z,22.90
2022-08-26T16:14:26.938Z,23.00
2022-08-26T16:16:56.541Z,22.90
2022-08-26T16:19:24.704Z,22.80
2022-08-26T16:21:52.917Z,22.80
2022-08-26T16:24:28.461Z,22.70
2022-08-26T16:26:58.515Z,22.70
2022-08-26T16:29:26.771Z,22.70
2022-08-26T16:31:55.207Z,22.60
2022-08-26T16:34:24.281Z,22.50
2022-08-26T16:36:53.278Z,22.40
2022-08-26T16:39:24.782Z,22.40
2022-08-26T16:41:53.194Z,22.30
2022-08-26T16:44:22.250Z,22.30
2022-08-26T16:46:50.671Z,22.10
2022-08-26T16:49:26.572Z,22.10
2022-08-26T16:51:54.659Z,22.10
2022-08-26T16:54:24.816Z,22.00
2022-08-26T16:56:53.007Z,21.90
2022-08-26T16:59:24.853Z,21.90
2022-08-26T17:01:53.484Z,21.80
2022-08-26T17:04:22.052Z,21.80
2022-08-26T17:06:50.887Z,21.70
2022-08-26T17:09:19.442Z,21.50
2022-08-26T17:11:52.851Z,21.40
2022-08-26T17:14:21.128Z,21.30
2022-08-26T17:16:51.306Z,21.20
2022-08-26T17:19:20.832Z,21.10
2022-08-26T17:21:50.361Z,21.00
2022-08-26T17:24:19.072Z,20.90
2022-08-26T17:26:54.332Z,20.90
2022-08-26T17:29:24.535Z,20.80
2022-08-26T17:31:54.127Z,20.70
2022-08-26T17:34:23.349Z,20.60
2022-08-26T17:36:51.676Z,20.50
2022-08-26T17:39:20.497Z,20.40
2022-08-26T17:41:50.466Z,20.30
2022-08-26T17:44:18.979Z,20.20
2022-08-26T17:46:47.732Z,20.20
2022-08-26T17:49:16.005Z,20.10
2022-08-26T17:51:44.292Z,20.10
2022-08-26T17:54:12.453Z,19.90
2022-08-26T17:56:40.653Z,19.80
2022-08-26T17:59:11.311Z,19.80
2022-08-26T18:01:40.971Z,19.70
2022-08-26T18:04:32.593Z,19.60
2022-08-26T18:07:01.418Z,19.50
2022-08-26T18:09:31.266Z,19.40
2022-08-26T18:12:00.294Z,19.30
2022-08-26T18:14:30.399Z,19.20
2022-08-26T18:16:58.660Z,19.10
2022-08-26T18:19:26.943Z,19.00
2022-08-26T18:22:23.303Z,19.00
2022-08-26T18:24:58.781Z,18.90
2022-08-26T18:27:27.880Z,18.80
2022-08-26T18:29:58.744Z,18.70
2022-08-26T18:32:27.554Z,18.70
2022-08-26T18:34:58.258Z,18.60
2022-08-26T18:37:29.576Z,18.50
2022-08-26T18:40:01.293Z,18.50
2022-08-26T18:42:30.077Z,18.50
2022-08-26T18:45:00.069Z,18.50
2022-08-26T18:47:30.370Z,18.50
2022-08-26T18:49:59.093Z,18.50
2022-08-26T18:52:27.657Z,18.50
2022-08-26T18:54:56.290Z,18.50
2022-08-26T18:57:25.240Z,18.50
2022-08-26T18:59:54.093Z,18.50
2022-08-26T19:02:24.647Z,18.50
2022-08-26T19:04:53.752Z,18.50
2022-08-26T19:07:22.985Z,18.50
2022-08-26T19:09:54.013Z,18.50
2022-08-26T19:12:22.869Z,18.50
2022-08-26T19:14:55.488Z,18.50
2022-08-26T19:17:25.835Z,18.60
2022-08-26T19:19:54.647Z,18.50
2022-08-26T19:22:23.307Z,18.50
2022-08-26T19:24:53.115Z,18.50
2022-08-26T19:27:22.827Z,18.50
2022-08-26T19:29:52.191Z,18.50
2022-08-26T19:32:24.705Z,18.50
2022-08-26T19:34:55.802Z,18.50
2022-08-26T19:37:26.441Z,18.50
2022-08-26T19:39:55.687Z,18.50
2022-08-26T19:42:26.097Z,18.50
2022-08-26T19:45:24.630Z,18.60
2022-08-26T19:47:55.733Z,18.60
2022-08-26T19:50:28.912Z,18.50
2022-08-26T19:52:58.665Z,18.50
2022-08-26T19:55:29.918Z,18.50
2022-08-26T19:57:59.733Z,18.50
2022-08-26T20:00:31.951Z,18.50
2022-08-26T20:03:01.727Z,18.50
2022-08-26T20:05:31.965Z,18.50
2022-08-26T20:08:00.907Z,18.50
2022-08-26T20:10:29.263Z,18.50
2022-08-26T20:12:57.391Z,18.50
2022-08-26T20:15:25.612Z,18.60
2022-08-26T20:17:57.721Z,18.60
2022-08-26T20:20:43.189Z,18.60
2022-08-26T20:23:12.713Z,18.60
2022-08-26T20:25:42.845Z,18.60
2022-08-26T20:28:11.154Z,18.50
2022-08-26T20:30:39.776Z,18.50
2022-08-26T20:33:07.941Z,18.50
2022-08-26T20:35:36.153Z,18.50
2022-08-26T20:38:05.776Z,18.40
2022-08-26T20:40:35.667Z,18.30
2022-08-26T20:43:06.341Z,18.30
2022-08-26T20:45:34.727Z,18.30
2022-08-26T20:48:03.637Z,18.30
2022-08-26T20:50:32.729Z,18.30
2022-08-26T20:53:13.070Z,18.30
2022-08-26T20:55:45.009Z,18.20
2022-08-26T20:58:13.500Z,18.20
2022-08-26T21:00:42.340Z,18.30
2022-08-26T21:03:10.740Z,18.20
2022-08-26T21:05:39.067Z,18.20
2022-08-26T21:08:07.299Z,18.20
2022-08-26T21:10:39.793Z,18.10
2022-08-26T21:13:09.532Z,18.20
2022-08-26T21:15:37.743Z,18.10
2022-08-26T21:18:06.437Z,18.00
2022-08-26T21:20:34.699Z,18.00
2022-08-26T21:23:02.992Z,17.90
2022-08-26T21:25:31.387Z,17.90
2022-08-26T21:27:59.917Z,17.90
2022-08-26T21:30:29.971Z,17.80
2022-08-26T21:32:58.870Z,17.90
